METAR UND TAF INFORMATION

METAR FOR LRCL
ADDS - METARS form results

(0228 UTC 26 June 2022)
Data provider http://aviationweather.gov/metar/data/
 
METAR text: LRCL 260200Z 09002KT CAVOK 16/13 Q1015
Conditions at: LRCL (CLUJ-NAPOCA/SOME, RO) observed 0200 UTC 26 June 2022
Temperature: 16.0°C (61°F)
Dewpoint: 13.0°C (55°F) [RH = 82%]
Pressure (altimeter): 29.97 inches Hg (1015.0 mb)
Winds: from the E (90 degrees) at 2 MPH (2 knots; 1.0 m/s)
Visibility: 6 or more miles (10+ km)
Ceiling: ceiling and visibility are OK
Clouds: unknown
Weather: no significant weather observed at this time

METAR text: LRCL 260130Z 00000KT CAVOK 17/13 Q1015
Conditions at: LRCL (CLUJ-NAPOCA/SOME, RO) observed 0130 UTC 26 June 2022
Temperature: 17.0°C (63°F)
Dewpoint: 13.0°C (55°F) [RH = 77%]
Pressure (altimeter): 29.97 inches Hg (1015.0 mb)
Winds: calm
Visibility: 6 or more miles (10+ km)
Ceiling: ceiling and visibility are OK
Clouds: unknown
Weather: no significant weather observed at this time

Forecast for: LRCL (CLUJ-NAPOCA/SOME, RO)
Text: TAF LRCL 252300Z 2600/2609 VRB03KT CAVOK
Forecast period: 0000 to 0900 UTC 26 June 2022
Forecast type: FROM: standard forecast or significant change
Winds: variable direction winds at 3 MPH (3 knots; 1.5 m/s)
Visibility: 6 or more miles (10+ km)
Ceiling: unknown
Clouds: missing
Weather: NSW  (no significant weather)

 FLUGHAFENKARTE

 RUNWAY INFORMATION
Runway 07 Runway length 6070 ft Runway width 98 ft
Runway elevation 1036 ft Runway displaced threshold 0 ft Runway heading 79
Runway 25 Runway length 6070 ft Runway width 98 ft
Runway elevation 1025 ft Runway displaced threshold 0 ft Runway heading 259
Runway 08 Runway length 0 ft Runway width 0 ft
Runway elevation 1036 ft Runway displaced threshold 0 ft Runway heading 0
Runway 26 Runway length 0 ft Runway width 0 ft
Runway elevation 1025 ft Runway displaced threshold 0 ft Runway heading 0

 AIRPORT FREQUENCIES
Type APP Name APP Frequency 125.1 MHZ
Type GCA Name PRECISION Frequency 118.7 MHZ
Type TWR Name TWR Frequency 134.4 MHZ

 AIRPORT NEAR NAVIGATION AIDS
Type VOR-DME Name Cluj Frequency 111200 KHZ